sensor_id;sensor_type;location;lat;lon;timestamp;temperature;humidity
44565;DHT22;30275;51.822;-0.326;2023-05-10T00:01:21;11.40;99.90
44565;DHT22;30275;51.822;-0.326;2023-05-10T00:03:46;11.30;99.90
44565;DHT22;30275;51.822;-0.326;2023-05-10T00:06:12;11.30;99.90
44565;DHT22;30275;51.822;-0.326;2023-05-10T00:08:37;11.20;99.90
44565;DHT22;30275;51.822;-0.326;2023-05-10T00:11:03;11.20;99.90
44565;DHT22;30275;51.822;-0.326;2023-05-10T00:13:29;11.20;99.90
44565;DHT22;30275;51.822;-0.326;2023-05-10T00:15:55;11.20;99.90
44565;DHT22;30275;51.822;-0.326;2023-05-10T00:18:20;11.10;99.90
44565;DHT22;30275;51.822;-0.326;2023-05-10T00:20:46;11.10;99.90
44565;DHT22;30275;51.822;-0.326;2023-05-10T00:23:12;11.10;99.90
44565;DHT22;30275;51.822;-0.326;2023-05-10T00:25:37;11.00;99.90
44565;DHT22;30275;51.822;-0.326;2023-05-10T00:28:03;11.00;99.90
44565;DHT22;30275;51.822;-0.326;2023-05-10T00:30:28;11.00;99.90
44565;DHT22;30275;51.822;-0.326;2023-05-10T00:32:54;11.00;99.90
44565;DHT22;30275;51.822;-0.326;2023-05-10T00:35:19;10.90;99.90
44565;DHT22;30275;51.822;-0.326;2023-05-10T00:37:46;10.90;99.90
44565;DHT22;30275;51.822;-0.326;2023-05-10T00:40:12;10.90;99.90
44565;DHT22;30275;51.822;-0.326;2023-05-10T00:42:38;10.80;99.90
44565;DHT22;30275;51.822;-0.326;2023-05-10T00:45:04;10.80;99.90
44565;DHT22;30275;51.822;-0.326;2023-05-10T00:47:30;10.70;99.90
44565;DHT22;30275;51.822;-0.326;2023-05-10T00:49:56;10.70;99.90
44565;DHT22;30275;51.822;-0.326;2023-05-10T00:52:22;10.70;99.90
44565;DHT22;30275;51.822;-0.326;2023-05-10T00:54:50;10.60;99.90
44565;DHT22;30275;51.822;-0.326;2023-05-10T00:57:16;10.60;99.90
44565;DHT22;30275;51.822;-0.326;2023-05-10T00:59:42;10.60;99.90
44565;DHT22;30275;51.822;-0.326;2023-05-10T01:02:08;10.50;99.90
44565;DHT22;30275;51.822;-0.326;2023-05-10T01:04:35;10.40;99.90
44565;DHT22;30275;51.822;-0.326;2023-05-10T01:07:00;10.30;99.90
44565;DHT22;30275;51.822;-0.326;2023-05-10T01:09:26;10.30;99.90
44565;DHT22;30275;51.822;-0.326;2023-05-10T01:11:53;10.30;99.90
44565;DHT22;30275;51.822;-0.326;2023-05-10T01:14:19;10.20;99.90
44565;DHT22;30275;51.822;-0.326;2023-05-10T01:16:46;10.20;99.90
44565;DHT22;30275;51.822;-0.326;2023-05-10T01:19:48;10.20;99.90
44565;DHT22;30275;51.822;-0.326;2023-05-10T01:36:54;10.00;99.90
44565;DHT22;30275;51.822;-0.326;2023-05-10T01:39:46;10.20;99.90
44565;DHT22;30275;51.822;-0.326;2023-05-10T01:42:17;10.10;99.90
44565;DHT22;30275;51.822;-0.326;2023-05-10T01:44:58;10.10;99.90
44565;DHT22;30275;51.822;-0.326;2023-05-10T01:47:35;10.00;99.90
44565;DHT22;30275;51.822;-0.326;2023-05-10T01:50:04;10.10;99.90
44565;DHT22;30275;51.822;-0.326;2023-05-10T01:52:34;10.00;99.90
44565;DHT22;30275;51.822;-0.326;2023-05-10T01:55:05;10.00;99.90
44565;DHT22;30275;51.822;-0.326;2023-05-10T01:57:36;10.00;99.90
44565;DHT22;30275;51.822;-0.326;2023-05-10T02:00:06;9.90;99.90
44565;DHT22;30275;51.822;-0.326;2023-05-10T02:02:37;9.90;99.90
44565;DHT22;30275;51.822;-0.326;2023-05-10T02:05:05;9.80;99.90
44565;DHT22;30275;51.822;-0.326;2023-05-10T02:07:34;9.80;99.90
44565;DHT22;30275;51.822;-0.326;2023-05-10T02:10:02;9.80;99.90
44565;DHT22;30275;51.822;-0.326;2023-05-10T02:12:29;9.80;99.90
44565;DHT22;30275;51.822;-0.326;2023-05-10T02:14:56;9.70;99.90
44565;DHT22;30275;51.822;-0.326;2023-05-10T02:17:23;9.70;99.90
44565;DHT22;30275;51.822;-0.326;2023-05-10T02:19:51;9.70;99.90
44565;DHT22;30275;51.822;-0.326;2023-05-10T02:22:18;9.60;99.90
44565;DHT22;30275;51.822;-0.326;2023-05-10T02:24:44;9.60;99.90
44565;DHT22;30275;51.822;-0.326;2023-05-10T02:27:11;9.50;99.90
44565;DHT22;30275;51.822;-0.326;2023-05-10T02:29:38;9.50;99.90
44565;DHT22;30275;51.822;-0.326;2023-05-10T02:32:04;9.50;99.90
44565;DHT22;30275;51.822;-0.326;2023-05-10T02:34:30;9.50;99.90
44565;DHT22;30275;51.822;-0.326;2023-05-10T02:36:57;9.50;99.90
44565;DHT22;30275;51.822;-0.326;2023-05-10T02:39:24;9.50;99.90
44565;DHT22;30275;51.822;-0.326;2023-05-10T02:41:51;9.40;99.90
44565;DHT22;30275;51.822;-0.326;2023-05-10T02:44:22;9.50;99.90
44565;DHT22;30275;51.822;-0.326;2023-05-10T02:46:47;9.50;99.90
44565;DHT22;30275;51.822;-0.326;2023-05-10T02:49:14;9.60;99.90
44565;DHT22;30275;51.822;-0.326;2023-05-10T02:51:43;9.60;99.90
44565;DHT22;30275;51.822;-0.326;2023-05-10T02:54:17;9.70;99.90
44565;DHT22;30275;51.822;-0.326;2023-05-10T02:56:50;9.70;99.90
44565;DHT22;30275;51.822;-0.326;2023-05-10T02:59:17;9.70;99.90
44565;DHT22;30275;51.822;-0.326;2023-05-10T03:01:42;9.70;99.90
44565;DHT22;30275;51.822;-0.326;2023-05-10T03:04:08;9.70;99.90
44565;DHT22;30275;51.822;-0.326;2023-05-10T03:06:33;9.80;99.90
44565;DHT22;30275;51.822;-0.326;2023-05-10T03:08:59;9.80;99.90
44565;DHT22;30275;51.822;-0.326;2023-05-10T03:11:46;9.70;99.90
44565;DHT22;30275;51.822;-0.326;2023-05-10T03:17:10;9.70;99.90
44565;DHT22;30275;51.822;-0.326;2023-05-10T03:22:37;9.70;99.90
44565;DHT22;30275;51.822;-0.326;2023-05-10T03:25:06;9.60;99.90
44565;DHT22;30275;51.822;-0.326;2023-05-10T03:27:32;9.60;99.90
44565;DHT22;30275;51.822;-0.326;2023-05-10T03:29:59;9.60;99.90
44565;DHT22;30275;51.822;-0.326;2023-05-10T03:32:26;9.40;99.90
44565;DHT22;30275;51.822;-0.326;2023-05-10T03:34:54;9.50;99.90
44565;DHT22;30275;51.822;-0.326;2023-05-10T03:37:19;9.50;99.90
44565;DHT22;30275;51.822;-0.326;2023-05-10T03:39:45;9.50;99.90
44565;DHT22;30275;51.822;-0.326;2023-05-10T03:42:10;9.50;99.90
44565;DHT22;30275;51.822;-0.326;2023-05-10T03:44:38;9.50;99.90
44565;DHT22;30275;51.822;-0.326;2023-05-10T03:47:04;9.40;99.90
44565;DHT22;30275;51.822;-0.326;2023-05-10T03:49:29;9.40;99.90
44565;DHT22;30275;51.822;-0.326;2023-05-10T03:51:55;9.30;99.90
44565;DHT22;30275;51.822;-0.326;2023-05-10T03:54:21;9.30;99.90
44565;DHT22;30275;51.822;-0.326;2023-05-10T03:56:46;9.20;99.90
44565;DHT22;30275;51.822;-0.326;2023-05-10T03:59:13;8.90;99.90
44565;DHT22;30275;51.822;-0.326;2023-05-10T04:01:39;8.90;99.90
44565;DHT22;30275;51.822;-0.326;2023-05-10T04:04:04;8.90;99.90
44565;DHT22;30275;51.822;-0.326;2023-05-10T04:06:30;8.80;99.90
44565;DHT22;30275;51.822;-0.326;2023-05-10T04:08:56;8.70;99.90
44565;DHT22;30275;51.822;-0.326;2023-05-10T04:11:25;8.70;99.90
44565;DHT22;30275;51.822;-0.326;2023-05-10T04:13:50;8.60;99.90
44565;DHT22;30275;51.822;-0.326;2023-05-10T04:16:16;8.70;99.90
44565;DHT22;30275;51.822;-0.326;2023-05-10T04:18:42;8.70;99.90
44565;DHT22;30275;51.822;-0.326;2023-05-10T04:21:14;8.70;99.90
44565;DHT22;30275;51.822;-0.326;2023-05-10T04:23:39;8.70;99.90
44565;DHT22;30275;51.822;-0.326;2023-05-10T04:26:05;8.70;99.90
44565;DHT22;30275;51.822;-0.326;2023-05-10T04:28:31;8.80;99.90
44565;DHT22;30275;51.822;-0.326;2023-05-10T04:33:28;8.70;99.90
44565;DHT22;30275;51.822;-0.326;2023-05-10T04:35:54;8.60;99.90
44565;DHT22;30275;51.822;-0.326;2023-05-10T04:38:19;8.60;99.90
44565;DHT22;30275;51.822;-0.326;2023-05-10T04:40:45;8.70;99.90
44565;DHT22;30275;51.822;-0.326;2023-05-10T04:43:10;8.80;99.90
44565;DHT22;30275;51.822;-0.326;2023-05-10T04:45:36;8.80;99.90
44565;DHT22;30275;51.822;-0.326;2023-05-10T04:48:01;8.80;99.90
44565;DHT22;30275;51.822;-0.326;2023-05-10T04:50:27;8.90;99.90
44565;DHT22;30275;51.822;-0.326;2023-05-10T04:52:53;8.90;99.90
44565;DHT22;30275;51.822;-0.326;2023-05-10T04:55:18;8.90;99.90
44565;DHT22;30275;51.822;-0.326;2023-05-10T04:57:44;9.00;99.90
44565;DHT22;30275;51.822;-0.326;2023-05-10T05:00:10;8.90;99.90
44565;DHT22;30275;51.822;-0.326;2023-05-10T05:02:36;8.90;99.90
44565;DHT22;30275;51.822;-0.326;2023-05-10T05:05:02;9.00;99.90
44565;DHT22;30275;51.822;-0.326;2023-05-10T05:07:27;9.00;99.90
44565;DHT22;30275;51.822;-0.326;2023-05-10T05:09:53;9.00;99.90
44565;DHT22;30275;51.822;-0.326;2023-05-10T05:12:18;8.80;99.90
44565;DHT22;30275;51.822;-0.326;2023-05-10T05:14:44;8.70;99.90
44565;DHT22;30275;51.822;-0.326;2023-05-10T05:17:09;8.70;99.90
44565;DHT22;30275;51.822;-0.326;2023-05-10T05:19:35;8.80;99.90
44565;DHT22;30275;51.822;-0.326;2023-05-10T05:22:01;8.90;99.90
44565;DHT22;30275;51.822;-0.326;2023-05-10T05:37:35;9.20;99.90
44565;DHT22;30275;51.822;-0.326;2023-05-10T05:40:01;9.90;99.90
44565;DHT22;30275;51.822;-0.326;2023-05-10T05:42:27;9.90;99.90
44565;DHT22;30275;51.822;-0.326;2023-05-10T05:44:52;10.00;99.90
44565;DHT22;30275;51.822;-0.326;2023-05-10T05:47:18;10.20;99.90
44565;DHT22;30275;51.822;-0.326;2023-05-10T05:49:47;10.20;99.90
44565;DHT22;30275;51.822;-0.326;2023-05-10T05:52:12;10.30;99.90
44565;DHT22;30275;51.822;-0.326;2023-05-10T05:54:39;10.40;99.90
44565;DHT22;30275;51.822;-0.326;2023-05-10T05:57:05;10.50;99.90
44565;DHT22;30275;51.822;-0.326;2023-05-10T05:59:30;10.90;99.90
44565;DHT22;30275;51.822;-0.326;2023-05-10T06:01:56;11.20;99.90
44565;DHT22;30275;51.822;-0.326;2023-05-10T06:04:26;11.20;99.90
44565;DHT22;30275;51.822;-0.326;2023-05-10T06:06:51;11.30;99.90
44565;DHT22;30275;51.822;-0.326;2023-05-10T06:09:17;11.20;99.90
44565;DHT22;30275;51.822;-0.326;2023-05-10T06:11:43;11.20;99.90
44565;DHT22;30275;51.822;-0.326;2023-05-10T06:14:09;11.00;99.90
44565;DHT22;30275;51.822;-0.326;2023-05-10T06:16:35;10.80;99.90
44565;DHT22;30275;51.822;-0.326;2023-05-10T06:19:01;10.70;99.90
44565;DHT22;30275;51.822;-0.326;2023-05-10T06:21:27;10.80;99.90
44565;DHT22;30275;51.822;-0.326;2023-05-10T06:23:53;10.80;99.90
44565;DHT22;30275;51.822;-0.326;2023-05-10T06:26:19;10.80;99.90
44565;DHT22;30275;51.822;-0.326;2023-05-10T06:28:46;10.70;99.90
44565;DHT22;30275;51.822;-0.326;2023-05-10T06:31:11;10.80;99.90
44565;DHT22;30275;51.822;-0.326;2023-05-10T06:33:37;10.90;99.90
44565;DHT22;30275;51.822;-0.326;2023-05-10T06:36:03;11.00;99.90
44565;DHT22;30275;51.822;-0.326;2023-05-10T06:38:29;11.00;99.90
44565;DHT22;30275;51.822;-0.326;2023-05-10T06:40:55;11.10;99.90
44565;DHT22;30275;51.822;-0.326;2023-05-10T06:43:20;11.20;99.90
44565;DHT22;30275;51.822;-0.326;2023-05-10T06:45:47;11.20;99.90
44565;DHT22;30275;51.822;-0.326;2023-05-10T06:48:13;11.20;99.90
44565;DHT22;30275;51.822;-0.326;2023-05-10T06:50:38;11.20;99.90
44565;DHT22;30275;51.822;-0.326;2023-05-10T06:53:04;11.40;99.90
44565;DHT22;30275;51.822;-0.326;2023-05-10T06:55:30;12.10;99.90
44565;DHT22;30275;51.822;-0.326;2023-05-10T06:57:55;14.00;99.90
44565;DHT22;30275;51.822;-0.326;2023-05-10T07:00:21;16.20;99.90
44565;DHT22;30275;51.822;-0.326;2023-05-10T07:02:47;17.90;99.90
44565;DHT22;30275;51.822;-0.326;2023-05-10T07:05:12;19.80;99.90
44565;DHT22;30275;51.822;-0.326;2023-05-10T07:07:38;21.10;99.90
44565;DHT22;30275;51.822;-0.326;2023-05-10T07:10:05;21.90;99.90
44565;DHT22;30275;51.822;-0.326;2023-05-10T07:12:30;22.10;99.90
44565;DHT22;30275;51.822;-0.326;2023-05-10T07:14:56;23.10;99.90
44565;DHT22;30275;51.822;-0.326;2023-05-10T07:17:22;23.20;98.30
44565;DHT22;30275;51.822;-0.326;2023-05-10T07:19:47;22.30;99.70
44565;DHT22;30275;51.822;-0.326;2023-05-10T07:22:14;23.10;99.60
44565;DHT22;30275;51.822;-0.326;2023-05-10T07:24:40;22.50;98.60
44565;DHT22;30275;51.822;-0.326;2023-05-10T07:27:05;21.50;99.30
44565;DHT22;30275;51.822;-0.326;2023-05-10T07:29:32;22.60;99.40
44565;DHT22;30275;51.822;-0.326;2023-05-10T07:31:58;23.40;99.90
44565;DHT22;30275;51.822;-0.326;2023-05-10T07:34:24;23.80;97.80
44565;DHT22;30275;51.822;-0.326;2023-05-10T07:36:49;25.30;96.80
44565;DHT22;30275;51.822;-0.326;2023-05-10T07:39:15;25.30;95.80
44565;DHT22;30275;51.822;-0.326;2023-05-10T07:41:42;25.60;95.00
44565;DHT22;30275;51.822;-0.326;2023-05-10T07:44:07;27.40;95.00
44565;DHT22;30275;51.822;-0.326;2023-05-10T07:46:33;27.50;93.20
44565;DHT22;30275;51.822;-0.326;2023-05-10T07:48:58;28.50;93.70
44565;DHT22;30275;51.822;-0.326;2023-05-10T07:51:24;28.60;92.50
44565;DHT22;30275;51.822;-0.326;2023-05-10T07:53:49;29.40;92.50
44565;DHT22;30275;51.822;-0.326;2023-05-10T07:58:47;27.50;92.20
44565;DHT22;30275;51.822;-0.326;2023-05-10T08:01:12;28.80;92.00
44565;DHT22;30275;51.822;-0.326;2023-05-10T08:03:38;29.70;91.00
44565;DHT22;30275;51.822;-0.326;2023-05-10T08:06:03;31.00;90.90
44565;DHT22;30275;51.822;-0.326;2023-05-10T08:08:29;30.30;89.90
44565;DHT22;30275;51.822;-0.326;2023-05-10T08:10:54;28.50;87.10
44565;DHT22;30275;51.822;-0.326;2023-05-10T08:13:21;26.90;91.90
44565;DHT22;30275;51.822;-0.326;2023-05-10T08:15:46;28.60;90.50
44565;DHT22;30275;51.822;-0.326;2023-05-10T08:18:12;30.20;90.10
44565;DHT22;30275;51.822;-0.326;2023-05-10T08:20:38;30.70;89.30
44565;DHT22;30275;51.822;-0.326;2023-05-10T08:23:03;30.10;88.30
44565;DHT22;30275;51.822;-0.326;2023-05-10T08:25:29;28.40;89.00
44565;DHT22;30275;51.822;-0.326;2023-05-10T08:27:54;26.10;90.80
44565;DHT22;30275;51.822;-0.326;2023-05-10T08:30:20;25.10;92.90
44565;DHT22;30275;51.822;-0.326;2023-05-10T08:32:46;25.10;92.60
44565;DHT22;30275;51.822;-0.326;2023-05-10T08:35:11;26.00;92.00
44565;DHT22;30275;51.822;-0.326;2023-05-10T08:37:37;27.20;92.40
44565;DHT22;30275;51.822;-0.326;2023-05-10T08:40:02;26.40;91.70
44565;DHT22;30275;51.822;-0.326;2023-05-10T08:42:30;25.60;92.30
44565;DHT22;30275;51.822;-0.326;2023-05-10T08:44:59;25.10;92.50
44565;DHT22;30275;51.822;-0.326;2023-05-10T08:47:25;27.10;92.40
44565;DHT22;30275;51.822;-0.326;2023-05-10T08:49:51;28.40;90.80
44565;DHT22;30275;51.822;-0.326;2023-05-10T08:52:17;27.30;90.00
44565;DHT22;30275;51.822;-0.326;2023-05-10T08:54:43;27.90;90.90
44565;DHT22;30275;51.822;-0.326;2023-05-10T08:57:10;28.90;89.70
44565;DHT22;30275;51.822;-0.326;2023-05-10T08:59:36;29.60;90.40
44565;DHT22;30275;51.822;-0.326;2023-05-10T09:02:04;29.30;89.50
44565;DHT22;30275;51.822;-0.326;2023-05-10T09:04:30;30.70;88.80
44565;DHT22;30275;51.822;-0.326;2023-05-10T09:06:56;31.40;88.40
44565;DHT22;30275;51.822;-0.326;2023-05-10T09:09:23;30.50;86.30
44565;DHT22;30275;51.822;-0.326;2023-05-10T09:11:51;30.20;89.10
44565;DHT22;30275;51.822;-0.326;2023-05-10T09:14:18;31.40;87.70
44565;DHT22;30275;51.822;-0.326;2023-05-10T09:16:46;31.90;85.90
44565;DHT22;30275;51.822;-0.326;2023-05-10T09:19:12;32.00;87.10
44565;DHT22;30275;51.822;-0.326;2023-05-10T09:21:37;30.70;84.20
44565;DHT22;30275;51.822;-0.326;2023-05-10T09:24:07;30.20;86.40
44565;DHT22;30275;51.822;-0.326;2023-05-10T09:26:32;28.80;86.00
44565;DHT22;30275;51.822;-0.326;2023-05-10T09:28:59;28.80;87.10
44565;DHT22;30275;51.822;-0.326;2023-05-10T09:31:49;29.00;88.60
44565;DHT22;30275;51.822;-0.326;2023-05-10T09:34:28;30.20;88.90
44565;DHT22;30275;51.822;-0.326;2023-05-10T09:36:56;31.60;85.70
44565;DHT22;30275;51.822;-0.326;2023-05-10T09:39:37;31.90;85.00
44565;DHT22;30275;51.822;-0.326;2023-05-10T09:42:05;32.10;86.10
44565;DHT22;30275;51.822;-0.326;2023-05-10T09:44:32;32.20;83.30
44565;DHT22;30275;51.822;-0.326;2023-05-10T09:46:58;32.60;82.90
44565;DHT22;30275;51.822;-0.326;2023-05-10T09:49:24;32.50;83.30
44565;DHT22;30275;51.822;-0.326;2023-05-10T09:52:06;31.80;80.90
44565;DHT22;30275;51.822;-0.326;2023-05-10T09:54:33;32.80;81.30
44565;DHT22;30275;51.822;-0.326;2023-05-10T09:57:00;33.30;79.70
44565;DHT22;30275;51.822;-0.326;2023-05-10T09:59:27;32.00;82.20
44565;DHT22;30275;51.822;-0.326;2023-05-10T10:01:56;31.80;81.70
44565;DHT22;30275;51.822;-0.326;2023-05-10T10:04:21;31.20;82.30
44565;DHT22;30275;51.822;-0.326;2023-05-10T10:07:04;32.10;82.10
44565;DHT22;30275;51.822;-0.326;2023-05-10T10:09:30;32.30;82.20
44565;DHT22;30275;51.822;-0.326;2023-05-10T10:11:55;31.20;80.40
44565;DHT22;30275;51.822;-0.326;2023-05-10T10:14:23;30.80;80.60
44565;DHT22;30275;51.822;-0.326;2023-05-10T10:16:53;31.90;78.90
44565;DHT22;30275;51.822;-0.326;2023-05-10T10:19:19;31.00;80.00
44565;DHT22;30275;51.822;-0.326;2023-05-10T10:21:46;29.20;81.70
44565;DHT22;30275;51.822;-0.326;2023-05-10T10:24:11;27.10;83.40
44565;DHT22;30275;51.822;-0.326;2023-05-10T10:26:37;25.20;88.70
44565;DHT22;30275;51.822;-0.326;2023-05-10T10:29:23;25.80;85.70
44565;DHT22;30275;51.822;-0.326;2023-05-10T10:32:06;24.20;88.30
44565;DHT22;30275;51.822;-0.326;2023-05-10T10:34:32;24.30;87.30
44565;DHT22;30275;51.822;-0.326;2023-05-10T10:37:04;25.90;86.60
44565;DHT22;30275;51.822;-0.326;2023-05-10T10:39:30;26.90;84.30
44565;DHT22;30275;51.822;-0.326;2023-05-10T10:41:57;26.10;86.60
44565;DHT22;30275;51.822;-0.326;2023-05-10T10:44:24;26.00;85.50
44565;DHT22;30275;51.822;-0.326;2023-05-10T10:49:25;24.70;89.90
44565;DHT22;30275;51.822;-0.326;2023-05-10T10:55:10;26.50;87.00
44565;DHT22;30275;51.822;-0.326;2023-05-10T10:57:54;25.30;84.20
44565;DHT22;30275;51.822;-0.326;2023-05-10T11:03:09;25.50;84.30
44565;DHT22;30275;51.822;-0.326;2023-05-10T11:05:48;22.60;88.20
44565;DHT22;30275;51.822;-0.326;2023-05-10T11:13:41;24.20;90.10
44565;DHT22;30275;51.822;-0.326;2023-05-10T11:18:36;28.90;83.40
44565;DHT22;30275;51.822;-0.326;2023-05-10T11:21:03;28.40;80.30
44565;DHT22;30275;51.822;-0.326;2023-05-10T11:25:56;27.60;78.20
44565;DHT22;30275;51.822;-0.326;2023-05-10T11:28:22;26.50;81.80
44565;DHT22;30275;51.822;-0.326;2023-05-10T11:30:48;26.70;83.30
44565;DHT22;30275;51.822;-0.326;2023-05-10T11:33:18;26.80;86.60
44565;DHT22;30275;51.822;-0.326;2023-05-10T11:35:45;27.80;83.80
44565;DHT22;30275;51.822;-0.326;2023-05-10T11:38:12;27.10;80.90
44565;DHT22;30275;51.822;-0.326;2023-05-10T11:40:39;25.60;82.50
44565;DHT22;30275;51.822;-0.326;2023-05-10T11:43:05;25.60;85.70
44565;DHT22;30275;51.822;-0.326;2023-05-10T11:45:34;26.00;82.20
44565;DHT22;30275;51.822;-0.326;2023-05-10T11:48:01;25.70;87.40
44565;DHT22;30275;51.822;-0.326;2023-05-10T11:50:27;26.00;81.00
44565;DHT22;30275;51.822;-0.326;2023-05-10T11:52:57;25.40;85.90
44565;DHT22;30275;51.822;-0.326;2023-05-10T11:55:23;27.30;86.10
44565;DHT22;30275;51.822;-0.326;2023-05-10T11:57:53;27.90;80.70
44565;DHT22;30275;51.822;-0.326;2023-05-10T12:00:19;27.00;81.00
44565;DHT22;30275;51.822;-0.326;2023-05-10T12:02:45;25.90;83.70
44565;DHT22;30275;51.822;-0.326;2023-05-10T12:05:11;25.10;83.60
44565;DHT22;30275;51.822;-0.326;2023-05-10T12:07:37;24.30;86.80
44565;DHT22;30275;51.822;-0.326;2023-05-10T12:12:52;21.70;91.00
44565;DHT22;30275;51.822;-0.326;2023-05-10T12:15:22;20.30;91.90
44565;DHT22;30275;51.822;-0.326;2023-05-10T12:17:48;19.80;92.40
44565;DHT22;30275;51.822;-0.326;2023-05-10T12:22:43;19.50;92.20
44565;DHT22;30275;51.822;-0.326;2023-05-10T12:25:09;19.40;93.10
44565;DHT22;30275;51.822;-0.326;2023-05-10T12:27:35;19.50;94.20
44565;DHT22;30275;51.822;-0.326;2023-05-10T12:30:02;19.70;94.20
44565;DHT22;30275;51.822;-0.326;2023-05-10T12:32:43;20.00;94.90
44565;DHT22;30275;51.822;-0.326;2023-05-10T12:35:09;20.20;94.00
44565;DHT22;30275;51.822;-0.326;2023-05-10T12:37:35;20.10;93.70
44565;DHT22;30275;51.822;-0.326;2023-05-10T12:40:08;19.70;93.30
44565;DHT22;30275;51.822;-0.326;2023-05-10T12:42:35;20.20;95.70
44565;DHT22;30275;51.822;-0.326;2023-05-10T12:45:04;20.20;96.60
44565;DHT22;30275;51.822;-0.326;2023-05-10T12:47:31;20.00;98.00
44565;DHT22;30275;51.822;-0.326;2023-05-10T12:49:57;20.20;98.10
44565;DHT22;30275;51.822;-0.326;2023-05-10T12:52:23;20.50;98.50
44565;DHT22;30275;51.822;-0.326;2023-05-10T12:54:49;20.40;98.30
44565;DHT22;30275;51.822;-0.326;2023-05-10T12:57:14;20.10;98.60
44565;DHT22;30275;51.822;-0.326;2023-05-10T12:59:40;19.70;99.80
44565;DHT22;30275;51.822;-0.326;2023-05-10T13:02:06;19.60;99.90
44565;DHT22;30275;51.822;-0.326;2023-05-10T13:04:32;19.70;99.90
44565;DHT22;30275;51.822;-0.326;2023-05-10T13:06:58;19.60;99.90
44565;DHT22;30275;51.822;-0.326;2023-05-10T13:09:27;19.50;99.90
44565;DHT22;30275;51.822;-0.326;2023-05-10T13:11:56;19.30;99.90
44565;DHT22;30275;51.822;-0.326;2023-05-10T13:14:21;18.90;99.90
44565;DHT22;30275;51.822;-0.326;2023-05-10T13:16:47;18.80;99.90
44565;DHT22;30275;51.822;-0.326;2023-05-10T13:19:16;17.60;99.90
44565;DHT22;30275;51.822;-0.326;2023-05-10T13:21:43;16.80;99.90
44565;DHT22;30275;51.822;-0.326;2023-05-10T13:24:12;16.00;99.90
44565;DHT22;30275;51.822;-0.326;2023-05-10T13:26:42;15.40;99.90
44565;DHT22;30275;51.822;-0.326;2023-05-10T13:29:08;15.10;99.90
44565;DHT22;30275;51.822;-0.326;2023-05-10T13:31:34;14.80;99.90
44565;DHT22;30275;51.822;-0.326;2023-05-10T13:34:01;14.60;99.90
44565;DHT22;30275;51.822;-0.326;2023-05-10T13:36:26;14.50;99.90
44565;DHT22;30275;51.822;-0.326;2023-05-10T13:38:52;14.30;99.90
44565;DHT22;30275;51.822;-0.326;2023-05-10T13:41:17;14.30;99.90
44565;DHT22;30275;51.822;-0.326;2023-05-10T13:43:43;14.40;99.90
44565;DHT22;30275;51.822;-0.326;2023-05-10T13:46:09;14.50;99.90
44565;DHT22;30275;51.822;-0.326;2023-05-10T13:48:34;14.60;99.90
44565;DHT22;30275;51.822;-0.326;2023-05-10T13:51:02;14.60;99.90
44565;DHT22;30275;51.822;-0.326;2023-05-10T13:53:27;14.70;99.90
44565;DHT22;30275;51.822;-0.326;2023-05-10T13:55:53;14.70;99.90
44565;DHT22;30275;51.822;-0.326;2023-05-10T13:58:19;14.80;99.90
44565;DHT22;30275;51.822;-0.326;2023-05-10T14:00:44;14.90;99.90
44565;DHT22;30275;51.822;-0.326;2023-05-10T14:03:10;15.20;99.90
44565;DHT22;30275;51.822;-0.326;2023-05-10T14:05:36;15.20;99.90
44565;DHT22;30275;51.822;-0.326;2023-05-10T14:08:02;15.40;99.90
44565;DHT22;30275;51.822;-0.326;2023-05-10T14:10:29;15.50;99.90
44565;DHT22;30275;51.822;-0.326;2023-05-10T14:12:55;15.60;99.90
44565;DHT22;30275;51.822;-0.326;2023-05-10T14:15:21;15.60;99.90
44565;DHT22;30275;51.822;-0.326;2023-05-10T14:29:30;15.90;99.90
44565;DHT22;30275;51.822;-0.326;2023-05-10T14:31:55;16.10;99.90
44565;DHT22;30275;51.822;-0.326;2023-05-10T14:34:21;16.00;99.90
44565;DHT22;30275;51.822;-0.326;2023-05-10T14:36:47;16.00;99.90
44565;DHT22;30275;51.822;-0.326;2023-05-10T14:39:12;16.00;99.90
44565;DHT22;30275;51.822;-0.326;2023-05-10T14:41:39;16.40;99.90
44565;DHT22;30275;51.822;-0.326;2023-05-10T14:44:06;16.60;99.90
44565;DHT22;30275;51.822;-0.326;2023-05-10T14:46:32;16.80;99.90
44565;DHT22;30275;51.822;-0.326;2023-05-10T14:48:57;17.00;99.90
44565;DHT22;30275;51.822;-0.326;2023-05-10T14:51:23;17.00;99.90
44565;DHT22;30275;51.822;-0.326;2023-05-10T14:53:49;17.00;99.90
44565;DHT22;30275;51.822;-0.326;2023-05-10T14:56:15;17.10;99.90
44565;DHT22;30275;51.822;-0.326;2023-05-10T14:58:40;16.90;99.90
44565;DHT22;30275;51.822;-0.326;2023-05-10T15:01:06;17.10;99.90
44565;DHT22;30275;51.822;-0.326;2023-05-10T15:03:31;17.00;99.90
44565;DHT22;30275;51.822;-0.326;2023-05-10T15:05:57;17.20;99.90
44565;DHT22;30275;51.822;-0.326;2023-05-10T15:08:23;17.30;99.90
44565;DHT22;30275;51.822;-0.326;2023-05-10T15:10:50;17.50;99.90
44565;DHT22;30275;51.822;-0.326;2023-05-10T15:13:16;17.70;99.90
44565;DHT22;30275;51.822;-0.326;2023-05-10T15:15:41;17.70;99.90
44565;DHT22;30275;51.822;-0.326;2023-05-10T15:18:08;17.50;99.90
44565;DHT22;30275;51.822;-0.326;2023-05-10T15:20:33;17.70;99.90
44565;DHT22;30275;51.822;-0.326;2023-05-10T15:23:00;17.70;99.90
44565;DHT22;30275;51.822;-0.326;2023-05-10T15:25:26;17.20;99.90
44565;DHT22;30275;51.822;-0.326;2023-05-10T15:27:53;17.00;99.90
44565;DHT22;30275;51.822;-0.326;2023-05-10T15:30:18;17.10;99.90
44565;DHT22;30275;51.822;-0.326;2023-05-10T15:32:44;17.40;99.90
44565;DHT22;30275;51.822;-0.326;2023-05-10T15:35:10;17.40;99.90
44565;DHT22;30275;51.822;-0.326;2023-05-10T15:37:36;17.50;99.90
44565;DHT22;30275;51.822;-0.326;2023-05-10T15:40:02;17.30;99.90
44565;DHT22;30275;51.822;-0.326;2023-05-10T15:42:29;17.00;99.90
44565;DHT22;30275;51.822;-0.326;2023-05-10T15:44:55;16.90;99.90
44565;DHT22;30275;51.822;-0.326;2023-05-10T15:47:21;17.00;99.90
44565;DHT22;30275;51.822;-0.326;2023-05-10T15:49:47;17.20;99.90
44565;DHT22;30275;51.822;-0.326;2023-05-10T15:52:12;17.50;99.90
44565;DHT22;30275;51.822;-0.326;2023-05-10T15:54:38;17.70;99.90
44565;DHT22;30275;51.822;-0.326;2023-05-10T15:57:04;17.60;99.90
44565;DHT22;30275;51.822;-0.326;2023-05-10T15:59:29;17.50;99.90
44565;DHT22;30275;51.822;-0.326;2023-05-10T16:01:55;17.10;99.90
44565;DHT22;30275;51.822;-0.326;2023-05-10T16:04:22;17.00;99.90
44565;DHT22;30275;51.822;-0.326;2023-05-10T16:06:47;17.10;99.90
44565;DHT22;30275;51.822;-0.326;2023-05-10T16:09:13;17.20;99.90
44565;DHT22;30275;51.822;-0.326;2023-05-10T16:11:38;16.90;99.90
44565;DHT22;30275;51.822;-0.326;2023-05-10T16:14:04;17.00;99.90
44565;DHT22;30275;51.822;-0.326;2023-05-10T16:16:30;17.40;99.90
44565;DHT22;30275;51.822;-0.326;2023-05-10T16:18:56;17.50;99.90
44565;DHT22;30275;51.822;-0.326;2023-05-10T16:21:22;17.40;99.90
44565;DHT22;30275;51.822;-0.326;2023-05-10T16:23:48;17.40;99.90
44565;DHT22;30275;51.822;-0.326;2023-05-10T16:26:14;17.60;99.90
44565;DHT22;30275;51.822;-0.326;2023-05-10T16:28:40;17.90;99.90
44565;DHT22;30275;51.822;-0.326;2023-05-10T16:31:05;17.90;99.90
44565;DHT22;30275;51.822;-0.326;2023-05-10T16:33:31;17.80;99.90